createdAt,value
2018-01-13T00:00:33.866Z,22.10
2018-01-13T00:01:33.801Z,21.00
2018-01-13T00:02:33.734Z,23.30
2018-01-13T00:03:33.667Z,21.80
2018-01-13T00:04:33.605Z,22.50
2018-01-13T00:05:33.537Z,21.30
2018-01-13T00:06:33.473Z,22.30
2018-01-13T00:07:33.405Z,22.90
2018-01-13T00:08:33.341Z,22.80
2018-01-13T00:09:33.275Z,22.30
2018-01-13T00:10:33.210Z,21.80
2018-01-13T00:11:33.146Z,22.10
2018-01-13T00:12:33.081Z,23.00
2018-01-13T00:13:33.015Z,22.30
2018-01-13T00:14:32.950Z,21.60
2018-01-13T00:15:32.884Z,22.40
2018-01-13T00:16:32.818Z,22.40
2018-01-13T00:17:32.773Z,23.00
2018-01-13T00:18:32.689Z,23.10
2018-01-13T00:19:32.623Z,22.10
2018-01-13T00:20:32.557Z,23.60
2018-01-13T00:21:32.493Z,24.40
2018-01-13T00:22:32.428Z,24.50
2018-01-13T00:23:32.362Z,24.30
2018-01-13T00:24:32.301Z,22.90
2018-01-13T00:25:32.237Z,22.40
2018-01-13T00:26:32.167Z,22.90
2018-01-13T00:27:32.100Z,22.20
2018-01-13T00:28:32.035Z,22.30
2018-01-13T00:29:31.969Z,22.90
2018-01-13T00:30:31.906Z,22.10
2018-01-13T00:31:31.840Z,23.50
2018-01-13T00:32:31.773Z,23.70
2018-01-13T00:33:31.710Z,21.50
2018-01-13T00:34:31.644Z,22.10
2018-01-13T00:35:31.578Z,21.30
2018-01-13T00:36:31.512Z,22.90
2018-01-13T00:37:31.447Z,23.60
2018-01-13T00:38:31.383Z,22.90
2018-01-13T00:39:31.317Z,22.00
2018-01-13T00:40:31.252Z,21.70
2018-01-13T00:41:31.187Z,21.90
2018-01-13T00:42:31.126Z,22.90
2018-01-13T00:43:31.056Z,22.80
2018-01-13T00:44:31.000Z,22.60
2018-01-13T00:45:30.925Z,21.80
2018-01-13T00:46:30.860Z,22.90
2018-01-13T00:47:30.794Z,22.90
2018-01-13T00:48:30.729Z,23.70
2018-01-13T00:49:30.664Z,22.80
2018-01-13T00:50:30.601Z,22.70
2018-01-13T00:51:30.532Z,22.90
2018-01-13T00:52:30.469Z,24.10
2018-01-13T00:53:30.402Z,23.70
2018-01-13T00:54:30.337Z,23.20
2018-01-13T00:55:30.273Z,22.50
2018-01-13T00:56:30.206Z,22.50
2018-01-13T00:57:30.143Z,24.00
2018-01-13T00:58:30.076Z,23.40
2018-01-13T00:59:30.012Z,25.90
2018-01-13T01:00:29.945Z,24.90
2018-01-13T01:01:29.879Z,25.90
2018-01-13T01:02:29.815Z,24.10
2018-01-13T01:03:29.748Z,25.10
2018-01-13T01:04:29.683Z,24.60
2018-01-13T01:05:29.618Z,24.50
2018-01-13T01:06:29.552Z,25.40
2018-01-13T01:07:29.485Z,26.10
2018-01-13T01:08:29.420Z,26.40
2018-01-13T01:09:29.354Z,26.50
2018-01-13T01:10:29.291Z,25.10
2018-01-13T01:11:29.223Z,25.20
2018-01-13T01:12:29.160Z,24.30
2018-01-13T01:13:29.094Z,23.90
2018-01-13T01:14:29.031Z,24.20
2018-01-13T01:15:28.962Z,24.10
2018-01-13T01:16:28.897Z,24.30
2018-01-13T01:17:28.831Z,24.80
2018-01-13T01:18:28.767Z,25.30
2018-01-13T01:19:28.703Z,25.20
2018-01-13T01:20:28.635Z,25.60
2018-01-13T01:21:28.571Z,23.40
2018-01-13T01:22:28.504Z,24.00
2018-01-13T01:23:28.438Z,25.80
2018-01-13T01:24:28.372Z,24.90
2018-01-13T01:25:28.308Z,24.30
2018-01-13T01:26:28.240Z,24.50
2018-01-13T01:27:28.176Z,25.50
2018-01-13T01:28:28.110Z,24.40
2018-01-13T01:29:28.044Z,23.70
2018-01-13T01:30:27.980Z,24.30
2018-01-13T01:31:27.914Z,24.90
2018-01-13T01:32:27.849Z,25.60
2018-01-13T01:33:27.783Z,25.10
2018-01-13T01:34:27.718Z,24.60
2018-01-13T01:35:27.652Z,24.90
2018-01-13T01:36:27.587Z,23.40
2018-01-13T01:37:27.521Z,25.60
2018-01-13T01:38:27.483Z,24.90
2018-01-13T01:39:27.391Z,24.00
2018-01-13T01:40:27.326Z,24.50
2018-01-13T01:41:27.258Z,24.30
2018-01-13T01:42:27.200Z,23.60
2018-01-13T01:43:27.128Z,23.30
2018-01-13T01:44:27.062Z,22.90
2018-01-13T01:45:26.998Z,22.50
2018-01-13T01:46:26.934Z,22.40
2018-01-13T01:47:26.868Z,23.70
2018-01-13T01:48:26.801Z,23.10
2018-01-13T01:49:26.737Z,23.60
2018-01-13T01:50:26.672Z,23.10
2018-01-13T01:51:26.606Z,23.10
2018-01-13T01:52:26.540Z,23.10
2018-01-13T01:53:26.475Z,23.90
2018-01-13T01:54:26.410Z,22.50
2018-01-13T01:55:26.344Z,23.40
2018-01-13T01:56:26.279Z,23.50
2018-01-13T01:57:26.213Z,23.80
2018-01-13T01:58:26.148Z,22.60
2018-01-13T01:59:26.082Z,22.40
2018-01-13T02:00:26.017Z,23.60
2018-01-13T02:01:25.952Z,23.20
2018-01-13T02:02:25.887Z,22.50
2018-01-13T02:03:25.820Z,23.80
2018-01-13T02:04:25.755Z,22.90
2018-01-13T02:05:25.692Z,20.90
2018-01-13T02:06:25.625Z,22.10
2018-01-13T02:07:25.560Z,22.00
2018-01-13T02:08:25.494Z,22.30
2018-01-13T02:09:25.428Z,21.30
2018-01-13T02:10:25.364Z,22.70
2018-01-13T02:11:25.297Z,22.00
2018-01-13T02:12:25.232Z,21.20
2018-01-13T02:13:25.168Z,21.90
2018-01-13T02:14:25.101Z,22.20
2018-01-13T02:15:25.035Z,22.40
2018-01-13T02:16:24.970Z,21.70
2018-01-13T02:17:24.905Z,21.50
2018-01-13T02:18:24.840Z,21.50
2018-01-13T02:19:24.773Z,22.90
2018-01-13T02:20:24.709Z,21.20
2018-01-13T02:21:24.642Z,22.00
2018-01-13T02:22:24.579Z,21.50
2018-01-13T02:23:24.513Z,21.40
2018-01-13T02:24:24.447Z,21.50
2018-01-13T02:25:24.382Z,22.30
2018-01-13T02:26:24.317Z,21.40
2018-01-13T02:27:24.256Z,21.50
2018-01-13T02:28:24.188Z,22.20
2018-01-13T02:29:24.119Z,21.40
2018-01-13T02:30:24.054Z,22.70
2018-01-13T02:31:23.988Z,23.00
2018-01-13T02:32:23.924Z,22.10
2018-01-13T02:33:23.859Z,21.70
2018-01-13T02:34:23.797Z,21.80
2018-01-13T02:35:23.727Z,22.70
2018-01-13T02:36:23.662Z,23.70
2018-01-13T02:37:23.597Z,24.20
2018-01-13T02:38:23.534Z,25.00
2018-01-13T02:39:23.466Z,23.20
2018-01-13T02:40:23.401Z,24.10
2018-01-13T02:41:23.335Z,23.00
2018-01-13T02:42:23.420Z,22.50
2018-01-13T02:43:23.205Z,24.40
2018-01-13T02:44:23.139Z,23.90
2018-01-13T02:45:23.074Z,23.80
2018-01-13T02:46:23.010Z,22.80
2018-01-13T02:47:22.993Z,23.70
2018-01-13T02:48:22.878Z,25.50
2018-01-13T02:49:22.813Z,23.30
2018-01-13T02:50:22.749Z,24.20
2018-01-13T02:51:22.680Z,23.90
2018-01-13T02:52:22.617Z,23.30
2018-01-13T02:53:22.550Z,24.80
2018-01-13T02:54:22.486Z,24.60
2018-01-13T02:55:22.420Z,24.70
2018-01-13T02:56:22.354Z,23.70
2018-01-13T02:57:22.288Z,23.90
2018-01-13T02:58:22.223Z,23.90
2018-01-13T02:59:22.168Z,23.50
2018-01-13T03:00:22.091Z,23.40
2018-01-13T03:01:22.026Z,22.30
2018-01-13T03:02:21.961Z,23.60
2018-01-13T03:03:21.895Z,22.90
2018-01-13T03:04:21.830Z,23.50
2018-01-13T03:05:21.765Z,24.00
2018-01-13T03:06:21.702Z,22.50
2018-01-13T03:07:21.635Z,23.10
2018-01-13T03:08:21.568Z,23.50
2018-01-13T03:09:21.502Z,23.00
2018-01-13T03:10:21.438Z,23.40
2018-01-13T03:11:21.371Z,24.00
2018-01-13T03:12:21.304Z,24.90
2018-01-13T03:13:21.241Z,23.70
2018-01-13T03:14:21.176Z,23.80
2018-01-13T03:15:21.108Z,24.00
2018-01-13T03:16:21.043Z,24.50
2018-01-13T03:17:20.978Z,23.70
2018-01-13T03:18:20.914Z,24.80
2018-01-13T03:19:20.847Z,23.40
2018-01-13T03:20:20.783Z,24.30
2018-01-13T03:21:20.717Z,24.20
2018-01-13T03:22:20.651Z,22.70
2018-01-13T03:23:20.585Z,23.60
2018-01-13T03:24:20.520Z,22.80
2018-01-13T03:25:20.456Z,23.20
2018-01-13T03:26:20.388Z,23.10
2018-01-13T03:27:20.324Z,24.20
2018-01-13T03:28:20.258Z,23.50
2018-01-13T03:29:20.193Z,23.20
2018-01-13T03:30:20.128Z,22.80
2018-01-13T03:31:20.063Z,23.70
2018-01-13T03:32:19.996Z,23.10
2018-01-13T03:33:19.931Z,23.50
2018-01-13T03:34:19.865Z,23.90
2018-01-13T03:35:19.799Z,22.90
2018-01-13T03:36:19.738Z,21.70
2018-01-13T03:37:19.669Z,22.20
2018-01-13T03:38:19.604Z,21.10
2018-01-13T03:39:19.537Z,21.40
2018-01-13T03:40:19.471Z,21.10
2018-01-13T03:41:19.407Z,22.20
2018-01-13T03:42:19.342Z,20.90
2018-01-13T03:43:19.275Z,22.20
2018-01-13T03:44:19.210Z,21.50
2018-01-13T03:45:19.144Z,21.40
2018-01-13T03:46:19.080Z,20.20
2018-01-13T03:47:19.014Z,21.30
2018-01-13T03:48:18.948Z,21.40
2018-01-13T03:49:18.882Z,22.10
2018-01-13T03:50:18.818Z,21.60
2018-01-13T03:51:18.753Z,23.20
2018-01-13T03:52:18.685Z,21.60
2018-01-13T03:53:18.624Z,22.10
2018-01-13T03:54:18.556Z,22.20
2018-01-13T03:55:18.488Z,23.80
2018-01-13T03:56:18.423Z,23.60
2018-01-13T03:57:18.358Z,23.00
2018-01-13T03:58:18.293Z,23.00
2018-01-13T03:59:18.227Z,23.30
2018-01-13T04:00:18.161Z,24.30
2018-01-13T04:01:18.097Z,23.80
2018-01-13T04:02:18.031Z,23.70
2018-01-13T04:03:17.964Z,24.70
2018-01-13T04:04:17.900Z,24.50
2018-01-13T04:05:17.834Z,23.50
2018-01-13T04:06:17.769Z,22.90
2018-01-13T04:07:17.701Z,25.00
2018-01-13T04:08:17.637Z,23.70
2018-01-13T04:09:17.571Z,24.90
2018-01-13T04:10:17.507Z,24.90
2018-01-13T04:11:17.440Z,24.10
2018-01-13T04:12:17.374Z,24.20
2018-01-13T04:13:17.312Z,24.50
2018-01-13T04:14:17.244Z,24.90
2018-01-13T04:15:17.178Z,24.50
2018-01-13T04:16:17.114Z,24.10
2018-01-13T04:17:17.047Z,23.90
2018-01-13T04:18:16.983Z,23.80
2018-01-13T04:19:16.914Z,25.50
2018-01-13T04:20:16.850Z,25.60
2018-01-13T04:21:16.784Z,24.50
2018-01-13T04:22:16.718Z,24.70
2018-01-13T04:23:16.651Z,25.20
2018-01-13T04:24:16.587Z,25.50
2018-01-13T04:25:16.567Z,24.90
2018-01-13T04:26:16.458Z,24.00
2018-01-13T04:27:16.388Z,23.80
2018-01-13T04:28:16.324Z,26.30
2018-01-13T04:29:16.265Z,26.00
2018-01-13T04:30:16.193Z,24.30
2018-01-13T04:31:16.126Z,24.00
2018-01-13T04:32:16.061Z,25.00
2018-01-13T04:33:16.001Z,25.80
2018-01-13T04:34:15.929Z,25.30
2018-01-13T04:35:15.864Z,25.70
2018-01-13T04:36:15.796Z,26.00
2018-01-13T04:37:15.731Z,25.50
2018-01-13T04:38:15.666Z,26.00
2018-01-13T04:39:15.600Z,25.60
2018-01-13T04:40:15.534Z,25.20
2018-01-13T04:41:15.470Z,26.20
2018-01-13T04:42:15.402Z,25.80
2018-01-13T04:43:15.342Z,26.60
2018-01-13T04:44:15.270Z,25.90
2018-01-13T04:45:15.206Z,25.50
2018-01-13T04:46:15.140Z,27.00
2018-01-13T04:47:15.074Z,24.80
2018-01-13T04:48:15.010Z,25.80
2018-01-13T04:49:14.943Z,26.50
2018-01-13T04:50:14.878Z,25.80
2018-01-13T04:51:14.810Z,25.40
2018-01-13T04:52:14.747Z,26.30
2018-01-13T04:53:14.679Z,24.70
2018-01-13T04:54:14.614Z,26.20
2018-01-13T04:55:14.549Z,26.00
2018-01-13T04:56:14.484Z,25.30
2018-01-13T04:57:14.416Z,23.90
2018-01-13T04:58:14.352Z,24.30
2018-01-13T04:59:14.285Z,24.00
2018-01-13T05:00:14.221Z,25.40
2018-01-13T05:01:14.153Z,24.00
2018-01-13T05:02:14.090Z,25.50
2018-01-13T05:03:14.023Z,25.40
2018-01-13T05:04:13.957Z,24.70
2018-01-13T05:05:13.892Z,25.70
2018-01-13T05:06:13.829Z,25.10
2018-01-13T05:07:13.759Z,24.70
2018-01-13T05:08:13.695Z,25.20
2018-01-13T05:09:13.629Z,24.60
2018-01-13T05:10:13.562Z,25.00
2018-01-13T05:11:13.498Z,25.60
2018-01-13T05:12:13.433Z,24.00
2018-01-13T05:13:13.367Z,24.20
2018-01-13T05:14:13.300Z,25.00
2018-01-13T05:15:13.235Z,24.40
2018-01-13T05:16:13.169Z,23.10
2018-01-13T05:17:13.104Z,24.90
2018-01-13T05:18:13.038Z,26.00
2018-01-13T05:19:12.973Z,24.80
2018-01-13T05:20:12.906Z,23.40
2018-01-13T05:21:12.841Z,24.00
2018-01-13T05:22:12.775Z,24.60
2018-01-13T05:23:12.710Z,23.00
2018-01-13T05:24:12.643Z,23.70
2018-01-13T05:25:12.579Z,23.90
2018-01-13T05:26:12.513Z,22.70
2018-01-13T05:27:12.448Z,23.20
2018-01-13T05:28:12.381Z,24.10
2018-01-13T05:29:12.316Z,22.90
2018-01-13T05:30:12.251Z,22.00
2018-01-13T05:31:12.185Z,21.00
2018-01-13T05:32:12.119Z,22.40
2018-01-13T05:33:12.376Z,22.00
2018-01-13T05:34:11.988Z,23.00
2018-01-13T05:35:11.923Z,21.50
2018-01-13T05:36:11.856Z,21.10
2018-01-13T05:37:11.790Z,21.40
2018-01-13T05:38:11.726Z,21.30
2018-01-13T05:39:11.659Z,20.30
2018-01-13T05:40:11.593Z,20.90
2018-01-13T05:41:11.527Z,20.30
2018-01-13T05:42:11.463Z,20.00
2018-01-13T05:43:11.397Z,19.70
2018-01-13T05:44:11.332Z,21.70
2018-01-13T05:45:11.264Z,20.60
2018-01-13T05:46:11.200Z,20.60
2018-01-13T05:47:11.141Z,21.50
2018-01-13T05:48:11.069Z,21.30
2018-01-13T05:49:11.005Z,21.20
2018-01-13T05:50:10.937Z,20.80
2018-01-13T05:51:10.872Z,19.80
2018-01-13T05:52:10.806Z,21.50
2018-01-13T05:53:10.740Z,21.00
2018-01-13T05:54:10.675Z,21.30
2018-01-13T05:55:10.608Z,20.80
2018-01-13T05:56:10.543Z,23.00
2018-01-13T05:57:10.493Z,22.50
2018-01-13T05:58:10.411Z,23.40
2018-01-13T05:59:10.346Z,23.50
2018-01-13T06:00:10.281Z,22.90
2018-01-13T06:01:10.215Z,23.40
2018-01-13T06:02:10.149Z,23.50
2018-01-13T06:03:10.084Z,24.10
2018-01-13T06:04:10.018Z,23.20
2018-01-13T06:05:09.952Z,23.10
2018-01-13T06:06:09.887Z,23.10
2018-01-13T06:07:09.821Z,23.30
2018-01-13T06:08:09.755Z,23.90
2018-01-13T06:09:09.689Z,23.50
2018-01-13T06:10:09.628Z,24.70
2018-01-13T06:11:09.557Z,23.20
2018-01-13T06:12:09.493Z,23.80
2018-01-13T06:13:09.427Z,22.60
2018-01-13T06:14:09.363Z,23.90
2018-01-13T06:15:09.295Z,25.20
2018-01-13T06:16:09.236Z,24.40
2018-01-13T06:17:09.163Z,23.50
2018-01-13T06:18:09.099Z,24.10
2018-01-13T06:19:09.033Z,22.50
2018-01-13T06:20:08.968Z,23.90
2018-01-13T06:21:08.902Z,20.20
2018-01-13T06:22:08.835Z,21.30
2018-01-13T06:23:08.771Z,19.50
2018-01-13T06:24:08.705Z,19.90
2018-01-13T06:25:08.641Z,21.10
2018-01-13T06:26:08.573Z,21.60
2018-01-13T06:27:08.507Z,20.60
2018-01-13T06:28:08.465Z,20.80
2018-01-13T06:29:08.375Z,20.80
2018-01-13T06:30:08.311Z,20.60
2018-01-13T06:31:08.244Z,19.60
2018-01-13T06:32:08.178Z,20.50
2018-01-13T06:33:08.172Z,20.40
2018-01-13T06:34:08.047Z,20.50
2018-01-13T06:35:07.981Z,18.90
2018-01-13T06:36:07.915Z,20.60
2018-01-13T06:37:07.850Z,19.20
2018-01-13T06:38:07.786Z,22.20
2018-01-13T06:39:07.718Z,20.20
2018-01-13T06:40:07.652Z,20.00
2018-01-13T06:41:07.586Z,20.50
2018-01-13T06:42:07.519Z,19.60
2018-01-13T06:43:07.454Z,21.60
2018-01-13T06:44:07.388Z,18.80
2018-01-13T06:45:07.322Z,18.90
2018-01-13T06:46:07.256Z,19.60
2018-01-13T06:47:07.190Z,19.40
2018-01-13T06:48:07.123Z,19.80
2018-01-13T06:49:07.058Z,20.00
2018-01-13T06:50:06.996Z,19.60
2018-01-13T06:51:06.926Z,19.90
2018-01-13T06:52:06.860Z,20.30
2018-01-13T06:53:06.795Z,20.00
2018-01-13T06:54:06.729Z,19.80
2018-01-13T06:55:06.663Z,20.10
2018-01-13T06:56:06.600Z,19.80
2018-01-13T06:57:06.532Z,20.40
2018-01-13T06:58:06.516Z,20.60
2018-01-13T06:59:06.399Z,19.30
2018-01-13T07:00:06.334Z,21.40
2018-01-13T07:01:06.267Z,20.00
2018-01-13T07:02:06.203Z,21.30
2018-01-13T07:03:06.136Z,20.00
2018-01-13T07:04:06.071Z,18.70
2018-01-13T07:05:06.009Z,19.50
2018-01-13T07:06:05.941Z,19.20
2018-01-13T07:07:05.874Z,18.80
2018-01-13T07:08:05.809Z,19.00
2018-01-13T07:09:05.743Z,19.20
2018-01-13T07:10:05.678Z,18.70
2018-01-13T07:11:05.609Z,19.80
2018-01-13T07:12:05.580Z,19.50
2018-01-13T07:13:05.478Z,18.20
2018-01-13T07:14:05.413Z,20.80
2018-01-13T07:15:05.347Z,20.00
2018-01-13T07:16:05.281Z,19.20
2018-01-13T07:17:05.215Z,19.50
2018-01-13T07:18:05.150Z,19.80
2018-01-13T07:19:05.083Z,20.10
2018-01-13T07:20:05.018Z,19.10
2018-01-13T07:21:04.953Z,19.70
2018-01-13T07:22:04.888Z,19.40
2018-01-13T07:23:04.821Z,18.90
2018-01-13T07:24:04.755Z,19.20
2018-01-13T07:25:04.690Z,18.70
2018-01-13T07:26:04.624Z,17.60
2018-01-13T07:27:04.557Z,18.40
2018-01-13T07:28:04.493Z,19.20
2018-01-13T07:29:04.427Z,19.20
2018-01-13T07:30:04.362Z,18.80
2018-01-13T07:31:04.294Z,18.20
2018-01-13T07:32:04.229Z,19.10
2018-01-13T07:33:04.165Z,18.90
2018-01-13T07:34:04.097Z,18.10
2018-01-13T07:35:04.032Z,17.90
2018-01-13T07:36:03.965Z,18.40
2018-01-13T07:37:03.900Z,19.30
2018-01-13T07:38:03.834Z,19.80
2018-01-13T07:39:03.767Z,17.90
2018-01-13T07:40:03.702Z,19.10
2018-01-13T07:41:03.638Z,18.30
2018-01-13T07:42:03.571Z,18.50
2018-01-13T07:43:03.510Z,17.70
2018-01-13T07:44:03.438Z,18.50
2018-01-13T07:45:03.375Z,18.60
2018-01-13T07:46:03.308Z,19.30
2018-01-13T07:47:03.242Z,19.60
2018-01-13T07:48:03.177Z,20.10
2018-01-13T07:49:03.111Z,18.90
2018-01-13T07:50:03.046Z,19.50
2018-01-13T07:51:02.978Z,20.60
2018-01-13T07:52:02.914Z,21.60
2018-01-13T07:53:02.847Z,23.80
2018-01-13T07:54:02.933Z,21.50
2018-01-13T07:55:02.717Z,19.30
2018-01-13T07:56:02.652Z,20.30
2018-01-13T07:57:02.585Z,18.10
2018-01-13T07:58:02.521Z,17.10
2018-01-13T07:59:02.453Z,18.90
2018-01-13T08:00:02.391Z,17.70
2018-01-13T08:01:02.322Z,18.60
2018-01-13T08:02:02.258Z,18.80
2018-01-13T08:03:02.191Z,18.10
2018-01-13T08:04:02.128Z,18.10
2018-01-13T08:05:02.060Z,17.90
2018-01-13T08:06:02.001Z,18.60
2018-01-13T08:07:01.928Z,18.10
2018-01-13T08:08:01.863Z,20.10
2018-01-13T08:09:01.805Z,19.10
2018-01-13T08:10:01.732Z,20.00
2018-01-13T08:11:01.665Z,18.10
2018-01-13T08:12:01.600Z,18.40
2018-01-13T08:13:01.535Z,19.60
2018-01-13T08:14:01.471Z,19.10
2018-01-13T08:15:01.403Z,19.30
2018-01-13T08:16:01.338Z,18.80
2018-01-13T08:17:01.273Z,18.60
2018-01-13T08:18:01.209Z,19.90
2018-01-13T08:19:01.141Z,19.20
2018-01-13T08:20:01.279Z,20.50
2018-01-13T08:21:01.014Z,19.70
2018-01-13T08:22:00.944Z,19.30
2018-01-13T08:23:00.880Z,20.30
2018-01-13T08:24:00.814Z,20.00
2018-01-13T08:25:00.750Z,20.00
2018-01-13T08:26:00.684Z,20.30
2018-01-13T08:27:00.620Z,18.70
2018-01-13T08:28:00.553Z,19.20
2018-01-13T08:29:00.487Z,20.60
2018-01-13T08:30:00.422Z,19.30
2018-01-13T08:31:00.357Z,19.90
2018-01-13T08:32:00.291Z,18.80
2018-01-13T08:33:00.226Z,19.40
2018-01-13T08:34:00.162Z,20.60
2018-01-13T08:35:00.095Z,20.60
2018-01-13T08:36:00.032Z,19.60
2018-01-13T08:36:59.964Z,19.20
2018-01-13T08:37:59.900Z,19.70
2018-01-13T08:38:59.833Z,21.10
2018-01-13T08:39:59.784Z,19.30
2018-01-13T08:40:59.705Z,19.70
2018-01-13T08:41:59.639Z,21.80
2018-01-13T08:42:59.573Z,21.20
2018-01-13T08:43:59.507Z,20.10
2018-01-13T08:44:59.444Z,20.60
2018-01-13T08:45:59.378Z,20.40
2018-01-13T08:46:59.310Z,20.90
2018-01-13T08:47:59.249Z,22.00
2018-01-13T08:48:59.182Z,21.60
2018-01-13T08:49:59.117Z,21.00
2018-01-13T08:50:59.049Z,20.90
2018-01-13T08:51:58.985Z,19.80
2018-01-13T08:52:58.920Z,18.80
2018-01-13T08:53:58.857Z,22.50
2018-01-13T08:54:58.792Z,21.90
2018-01-13T08:55:58.724Z,22.70
2018-01-13T08:56:58.659Z,20.70
2018-01-13T08:57:58.594Z,20.00
2018-01-13T08:58:58.528Z,19.00
2018-01-13T08:59:58.463Z,18.50
2018-01-13T09:00:58.398Z,19.50
2018-01-13T09:01:58.333Z,19.30
2018-01-13T09:02:58.267Z,19.10
2018-01-13T09:03:58.203Z,20.80
2018-01-13T09:04:58.138Z,25.50
2018-01-13T09:05:58.074Z,21.70
2018-01-13T09:06:58.008Z,20.80
2018-01-13T09:07:57.942Z,19.60
2018-01-13T09:08:57.878Z,18.90
2018-01-13T09:09:57.822Z,19.10
2018-01-13T09:10:57.748Z,17.00
2018-01-13T09:11:57.683Z,17.40
2018-01-13T09:12:57.618Z,19.30
2018-01-13T09:13:57.553Z,17.60
2018-01-13T09:14:57.487Z,18.60
2018-01-13T09:15:57.423Z,19.00
2018-01-13T09:16:57.358Z,19.30
2018-01-13T09:17:57.293Z,19.30
2018-01-13T09:18:57.229Z,18.00
2018-01-13T09:19:57.365Z,18.20
2018-01-13T09:20:57.099Z,18.00
2018-01-13T09:21:57.035Z,17.80
2018-01-13T09:22:57.028Z,16.90
2018-01-13T09:23:56.903Z,18.10
2018-01-13T09:24:56.839Z,17.80
2018-01-13T09:25:56.776Z,17.90
2018-01-13T09:26:56.709Z,22.60
2018-01-13T09:27:56.644Z,19.70
2018-01-13T09:28:56.580Z,16.90
2018-01-13T09:29:56.516Z,17.30
2018-01-13T09:30:56.451Z,16.50
2018-01-13T09:31:56.386Z,16.90
2018-01-13T09:32:56.320Z,16.60
2018-01-13T09:33:56.257Z,17.30
2018-01-13T09:34:56.191Z,16.60
2018-01-13T09:35:56.127Z,16.90
2018-01-13T09:36:56.062Z,17.80
2018-01-13T09:37:55.999Z,18.30
2018-01-13T09:38:55.935Z,19.80
2018-01-13T09:39:55.870Z,18.30
2018-01-13T09:40:55.805Z,17.60
2018-01-13T09:41:55.740Z,16.60
2018-01-13T09:42:55.676Z,18.30
2018-01-13T09:43:55.611Z,17.90
2018-01-13T09:44:55.553Z,16.90
2018-01-13T09:45:55.483Z,16.50
2018-01-13T09:46:55.417Z,17.60
2018-01-13T09:47:55.353Z,17.70
2018-01-13T09:48:55.289Z,18.50
2018-01-13T09:49:55.225Z,16.80
2018-01-13T09:50:55.159Z,16.90
2018-01-13T09:51:55.096Z,17.70
2018-01-13T09:52:55.083Z,16.50
2018-01-13T09:53:54.968Z,16.10
2018-01-13T09:54:54.903Z,17.30
2018-01-13T09:55:54.840Z,15.80
2018-01-13T09:56:54.776Z,15.70
2018-01-13T09:57:54.711Z,16.20
2018-01-13T09:58:54.645Z,16.40
2018-01-13T09:59:54.582Z,15.80
2018-01-13T10:00:54.518Z,16.60
2018-01-13T10:01:54.454Z,17.10
2018-01-13T10:02:54.389Z,16.90
2018-01-13T10:03:54.326Z,17.30
2018-01-13T10:04:54.261Z,17.00
2018-01-13T10:05:54.198Z,15.60
2018-01-13T10:06:54.133Z,15.00
2018-01-13T10:07:54.069Z,16.70
2018-01-13T10:08:54.006Z,16.80
2018-01-13T10:09:53.941Z,16.80
2018-01-13T10:10:53.877Z,16.20
2018-01-13T10:11:53.813Z,15.90
2018-01-13T10:12:53.751Z,17.00
2018-01-13T10:13:53.687Z,17.10
2018-01-13T10:14:53.621Z,15.50
2018-01-13T10:15:53.558Z,16.70
2018-01-13T10:16:53.493Z,16.70
2018-01-13T10:17:53.430Z,16.60
2018-01-13T10:18:53.369Z,15.40
2018-01-13T10:19:53.301Z,16.70
2018-01-13T10:20:53.238Z,16.60
2018-01-13T10:21:53.175Z,16.90
2018-01-13T10:22:53.109Z,17.50
2018-01-13T10:23:53.046Z,17.50
2018-01-13T10:24:52.982Z,16.20
2018-01-13T10:25:52.917Z,15.90
2018-01-13T10:26:52.853Z,16.30
2018-01-13T10:27:52.791Z,16.00
2018-01-13T10:28:52.726Z,15.90
2018-01-13T10:29:52.674Z,15.60
2018-01-13T10:30:52.597Z,16.10
2018-01-13T10:31:52.542Z,15.90
2018-01-13T10:32:52.471Z,16.50
2018-01-13T10:33:52.408Z,18.90
2018-01-13T10:34:52.343Z,16.00
2018-01-13T10:35:52.279Z,16.70
2018-01-13T10:36:52.215Z,15.50
2018-01-13T10:37:52.152Z,16.90
2018-01-13T10:38:52.088Z,17.10
2018-01-13T10:39:52.024Z,14.60
2018-01-13T10:40:51.960Z,15.30
2018-01-13T10:41:51.895Z,15.20
2018-01-13T10:42:51.831Z,16.60
2018-01-13T10:43:51.768Z,17.10
2018-01-13T10:44:51.703Z,18.40
2018-01-13T10:45:51.640Z,15.50
2018-01-13T10:46:51.575Z,16.40
2018-01-13T10:47:51.533Z,16.30
2018-01-13T10:48:51.449Z,16.90
2018-01-13T10:49:51.389Z,16.50
2018-01-13T10:50:51.319Z,17.30
2018-01-13T10:51:51.265Z,17.20
2018-01-13T10:52:51.191Z,16.30
2018-01-13T10:53:51.131Z,15.70
2018-01-13T10:54:51.082Z,16.60
2018-01-13T10:55:50.999Z,16.90
2018-01-13T10:56:50.935Z,16.50
2018-01-13T10:57:50.875Z,16.70
2018-01-13T10:58:50.808Z,15.90
2018-01-13T10:59:50.743Z,15.70
2018-01-13T11:00:50.680Z,16.10
2018-01-13T11:01:50.618Z,17.00
2018-01-13T11:02:50.552Z,17.50
2018-01-13T11:03:50.488Z,15.50
2018-01-13T11:04:50.426Z,16.10
2018-01-13T11:05:50.360Z,15.70
2018-01-13T11:06:50.297Z,16.30
2018-01-13T11:07:50.232Z,16.20
2018-01-13T11:08:50.193Z,15.10
2018-01-13T11:09:50.108Z,16.20
2018-01-13T11:10:50.040Z,14.30
2018-01-13T11:11:49.977Z,14.70
2018-01-13T11:12:49.913Z,14.90
2018-01-13T11:13:49.850Z,13.80
2018-01-13T11:14:49.784Z,13.80
2018-01-13T11:15:49.720Z,14.00
2018-01-13T11:16:49.692Z,14.10
2018-01-13T11:17:49.594Z,13.60
2018-01-13T11:18:49.529Z,14.00
2018-01-13T11:19:49.465Z,14.20
2018-01-13T11:20:49.402Z,13.90
2018-01-13T11:21:49.336Z,13.80
2018-01-13T11:22:49.271Z,14.40
2018-01-13T11:23:49.209Z,14.40
2018-01-13T11:24:49.145Z,15.10
2018-01-13T11:25:49.081Z,14.50
2018-01-13T11:26:49.023Z,14.60
2018-01-13T11:27:48.962Z,14.10
2018-01-13T11:28:48.890Z,13.70
2018-01-13T11:29:48.826Z,14.50
2018-01-13T11:30:48.762Z,14.10
2018-01-13T11:31:48.698Z,15.20
2018-01-13T11:32:48.633Z,15.00
2018-01-13T11:33:48.569Z,15.30
2018-01-13T11:34:48.543Z,15.10
2018-01-13T11:35:48.441Z,15.90
2018-01-13T11:36:48.378Z,15.50
2018-01-13T11:37:48.315Z,16.10
2018-01-13T11:38:48.249Z,16.70
2018-01-13T11:39:48.235Z,16.70
2018-01-13T11:40:48.123Z,16.10
2018-01-13T11:41:48.058Z,15.30
2018-01-13T11:42:48.000Z,15.70
2018-01-13T11:43:47.930Z,15.50
2018-01-13T11:44:47.866Z,16.50
2018-01-13T11:45:47.806Z,16.10
2018-01-13T11:46:47.738Z,15.50
2018-01-13T11:47:47.675Z,15.90
2018-01-13T11:48:47.615Z,16.00
2018-01-13T11:49:47.547Z,16.60
2018-01-13T11:50:47.484Z,15.90
2018-01-13T11:51:47.418Z,16.20
2018-01-13T11:52:47.355Z,16.70
2018-01-13T11:53:47.291Z,16.60
2018-01-13T11:54:47.225Z,16.80
2018-01-13T11:55:47.162Z,15.90
2018-01-13T11:56:47.099Z,15.90
2018-01-13T11:57:47.034Z,15.80
2018-01-13T11:58:46.973Z,15.90
2018-01-13T11:59:46.905Z,14.40
2018-01-13T12:00:46.843Z,14.30
2018-01-13T12:01:46.779Z,14.30
2018-01-13T12:02:46.715Z,14.50
2018-01-13T12:03:46.652Z,14.70
2018-01-13T12:04:46.587Z,14.70
2018-01-13T12:05:46.525Z,15.60
2018-01-13T12:06:46.460Z,16.80
2018-01-13T12:07:46.395Z,15.40
2018-01-13T12:08:46.332Z,15.70
2018-01-13T12:09:46.267Z,15.80
2018-01-13T12:10:46.203Z,15.50
2018-01-13T12:11:46.139Z,15.90
2018-01-13T12:12:46.075Z,15.50
2018-01-13T12:13:46.019Z,16.00
2018-01-13T12:14:45.947Z,16.50
2018-01-13T12:15:45.882Z,15.60
2018-01-13T12:16:45.820Z,16.90
2018-01-13T12:17:45.765Z,16.20
2018-01-13T12:18:45.691Z,16.60
2018-01-13T12:19:45.628Z,17.50
2018-01-13T12:20:45.564Z,15.80
2018-01-13T12:21:45.500Z,15.80
2018-01-13T12:22:45.437Z,15.60
2018-01-13T12:23:45.372Z,17.20
2018-01-13T12:24:45.309Z,17.20
2018-01-13T12:25:45.245Z,16.50
2018-01-13T12:26:45.181Z,15.90
2018-01-13T12:27:45.117Z,16.20
2018-01-13T12:28:45.053Z,16.30
2018-01-13T12:29:44.990Z,15.80
2018-01-13T12:30:44.926Z,17.10
2018-01-13T12:31:44.864Z,17.40
2018-01-13T12:32:44.797Z,16.50
2018-01-13T12:33:44.740Z,16.40
2018-01-13T12:34:44.668Z,15.40
2018-01-13T12:35:44.605Z,16.60
2018-01-13T12:36:44.541Z,16.70
2018-01-13T12:37:44.477Z,16.40
2018-01-13T12:38:44.413Z,16.90
2018-01-13T12:39:44.352Z,16.40
2018-01-13T12:40:44.287Z,16.60
2018-01-13T12:41:44.223Z,16.60
2018-01-13T12:42:44.158Z,17.70
2018-01-13T12:43:44.096Z,16.20
2018-01-13T12:44:44.031Z,17.50
2018-01-13T12:45:43.967Z,17.70
2018-01-13T12:46:43.902Z,17.50
2018-01-13T12:47:43.844Z,16.50
2018-01-13T12:48:43.775Z,16.00
2018-01-13T12:49:43.711Z,16.50
2018-01-13T12:50:43.647Z,17.10
2018-01-13T12:51:43.583Z,16.90